Terminal Aerodrome Forecast
Issued by NWS

Home | Current Version | Previous Version | Text Only | Print | Product List | Glossary On
Versions: 1 2 3 4 5 6 7 8 9 10 11 12 13 14 15 16 17 18 19 20 21 22 23 24 25 26 27 28 29 30 31
876
FTUS43 KDVN 091729
TAFBRL
TAF
KBRL 091729Z 0918/1018 32015G20KT P6SM VCSH SCT020 OVC025
      TEMPO 0918/0920 4SM -SHSN BR BKN020
     FM100000 32013G18KT P6SM BKN035
     FM100600 32012G18KT P6SM SCT035=

USA.gov is the U.S. government's official web portal to all federal, state and local government web resources and services.